sensor_id;sensor_type;location;lat;lon;timestamp;P1;durP1;ratioP1;P2;durP2;ratioP2
7729;SDS011;3908;52.310;7.230;2023-02-15T00:01:13;23.63;;;13.57;;
7729;SDS011;3908;52.310;7.230;2023-02-15T00:04:00;21.40;;;12.23;;
7729;SDS011;3908;52.310;7.230;2023-02-15T00:06:47;23.73;;;13.07;;
7729;SDS011;3908;52.310;7.230;2023-02-15T00:09:34;22.30;;;12.27;;
7729;SDS011;3908;52.310;7.230;2023-02-15T00:12:21;21.13;;;12.50;;
7729;SDS011;3908;52.310;7.230;2023-02-15T00:15:10;19.23;;;11.37;;
7729;SDS011;3908;52.310;7.230;2023-02-15T00:17:58;20.47;;;11.70;;
7729;SDS011;3908;52.310;7.230;2023-02-15T00:20:45;18.87;;;11.70;;
7729;SDS011;3908;52.310;7.230;2023-02-15T00:23:32;18.60;;;11.20;;
7729;SDS011;3908;52.310;7.230;2023-02-15T00:26:19;26.03;;;12.67;;
7729;SDS011;3908;52.310;7.230;2023-02-15T00:29:06;22.03;;;13.23;;
7729;SDS011;3908;52.310;7.230;2023-02-15T00:31:55;21.63;;;12.27;;
7729;SDS011;3908;52.310;7.230;2023-02-15T00:34:42;23.13;;;13.67;;
7729;SDS011;3908;52.310;7.230;2023-02-15T00:37:29;22.43;;;13.67;;
7729;SDS011;3908;52.310;7.230;2023-02-15T00:40:16;25.07;;;13.30;;
7729;SDS011;3908;52.310;7.230;2023-02-15T00:43:03;26.67;;;14.23;;
7729;SDS011;3908;52.310;7.230;2023-02-15T00:45:51;28.70;;;14.37;;
7729;SDS011;3908;52.310;7.230;2023-02-15T00:48:39;29.33;;;15.60;;
7729;SDS011;3908;52.310;7.230;2023-02-15T00:51:26;27.83;;;15.73;;
7729;SDS011;3908;52.310;7.230;2023-02-15T00:54:14;31.27;;;17.30;;
7729;SDS011;3908;52.310;7.230;2023-02-15T00:57:01;30.07;;;16.33;;
7729;SDS011;3908;52.310;7.230;2023-02-15T00:59:48;40.03;;;19.13;;
7729;SDS011;3908;52.310;7.230;2023-02-15T01:02:35;34.77;;;18.47;;
7729;SDS011;3908;52.310;7.230;2023-02-15T01:05:23;40.93;;;18.87;;
7729;SDS011;3908;52.310;7.230;2023-02-15T01:08:10;44.23;;;22.63;;
7729;SDS011;3908;52.310;7.230;2023-02-15T01:10:59;38.47;;;18.37;;
7729;SDS011;3908;52.310;7.230;2023-02-15T01:13:50;28.43;;;17.77;;
7729;SDS011;3908;52.310;7.230;2023-02-15T01:16:38;27.70;;;15.63;;
7729;SDS011;3908;52.310;7.230;2023-02-15T01:19:25;25.27;;;15.30;;
7729;SDS011;3908;52.310;7.230;2023-02-15T01:22:13;32.47;;;16.60;;
7729;SDS011;3908;52.310;7.230;2023-02-15T01:25:00;27.40;;;15.87;;
7729;SDS011;3908;52.310;7.230;2023-02-15T01:27:47;26.50;;;15.53;;
7729;SDS011;3908;52.310;7.230;2023-02-15T01:30:34;36.23;;;17.67;;
7729;SDS011;3908;52.310;7.230;2023-02-15T01:33:21;34.30;;;16.90;;
7729;SDS011;3908;52.310;7.230;2023-02-15T01:36:08;26.20;;;15.80;;
7729;SDS011;3908;52.310;7.230;2023-02-15T01:38:57;31.70;;;16.13;;
7729;SDS011;3908;52.310;7.230;2023-02-15T01:41:44;29.20;;;16.17;;
7729;SDS011;3908;52.310;7.230;2023-02-15T01:44:48;31.30;;;15.70;;
7729;SDS011;3908;52.310;7.230;2023-02-15T01:47:39;26.63;;;14.20;;
7729;SDS011;3908;52.310;7.230;2023-02-15T01:50:30;25.03;;;14.77;;
7729;SDS011;3908;52.310;7.230;2023-02-15T01:53:20;27.53;;;14.23;;
7729;SDS011;3908;52.310;7.230;2023-02-15T01:56:13;26.40;;;14.77;;
7729;SDS011;3908;52.310;7.230;2023-02-15T01:59:04;28.40;;;15.47;;
7729;SDS011;3908;52.310;7.230;2023-02-15T02:01:55;31.07;;;15.33;;
7729;SDS011;3908;52.310;7.230;2023-02-15T02:04:47;26.43;;;15.13;;
7729;SDS011;3908;52.310;7.230;2023-02-15T02:07:37;27.83;;;15.63;;
7729;SDS011;3908;52.310;7.230;2023-02-15T02:10:26;28.97;;;15.93;;
7729;SDS011;3908;52.310;7.230;2023-02-15T02:13:15;31.27;;;16.30;;
7729;SDS011;3908;52.310;7.230;2023-02-15T02:16:03;24.00;;;14.50;;
7729;SDS011;3908;52.310;7.230;2023-02-15T02:19:17;28.90;;;16.40;;
7729;SDS011;3908;52.310;7.230;2023-02-15T02:22:27;27.90;;;14.77;;
7729;SDS011;3908;52.310;7.230;2023-02-15T02:26:10;25.17;;;14.03;;
7729;SDS011;3908;52.310;7.230;2023-02-15T02:29:24;26.50;;;14.53;;
7729;SDS011;3908;52.310;7.230;2023-02-15T02:32:45;26.30;;;15.40;;
7729;SDS011;3908;52.310;7.230;2023-02-15T02:35:49;26.43;;;14.40;;
7729;SDS011;3908;52.310;7.230;2023-02-15T02:38:46;24.97;;;14.00;;
7729;SDS011;3908;52.310;7.230;2023-02-15T02:41:44;24.17;;;14.80;;
7729;SDS011;3908;52.310;7.230;2023-02-15T02:44:38;22.33;;;13.17;;
7729;SDS011;3908;52.310;7.230;2023-02-15T02:47:29;24.40;;;13.00;;
7729;SDS011;3908;52.310;7.230;2023-02-15T02:50:22;24.93;;;14.53;;
7729;SDS011;3908;52.310;7.230;2023-02-15T02:53:11;31.00;;;15.90;;
7729;SDS011;3908;52.310;7.230;2023-02-15T02:55:59;31.33;;;15.80;;
7729;SDS011;3908;52.310;7.230;2023-02-15T02:58:52;27.00;;;14.33;;
7729;SDS011;3908;52.310;7.230;2023-02-15T03:01:44;35.27;;;17.53;;
7729;SDS011;3908;52.310;7.230;2023-02-15T03:04:35;28.57;;;16.83;;
7729;SDS011;3908;52.310;7.230;2023-02-15T03:07:26;28.27;;;16.67;;
7729;SDS011;3908;52.310;7.230;2023-02-15T03:10:16;33.10;;;19.20;;
7729;SDS011;3908;52.310;7.230;2023-02-15T03:13:07;29.60;;;17.87;;
7729;SDS011;3908;52.310;7.230;2023-02-15T03:15:55;29.43;;;17.70;;
7729;SDS011;3908;52.310;7.230;2023-02-15T03:19:02;29.10;;;15.93;;
7729;SDS011;3908;52.310;7.230;2023-02-15T03:21:54;26.30;;;14.17;;
7729;SDS011;3908;52.310;7.230;2023-02-15T03:24:52;31.90;;;15.60;;
7729;SDS011;3908;52.310;7.230;2023-02-15T03:27:43;29.40;;;15.63;;
7729;SDS011;3908;52.310;7.230;2023-02-15T03:30:34;29.87;;;15.73;;
7729;SDS011;3908;52.310;7.230;2023-02-15T03:33:23;28.33;;;15.40;;
7729;SDS011;3908;52.310;7.230;2023-02-15T03:36:14;28.00;;;15.33;;
7729;SDS011;3908;52.310;7.230;2023-02-15T03:39:09;29.93;;;15.90;;
7729;SDS011;3908;52.310;7.230;2023-02-15T03:42:04;25.63;;;15.20;;
7729;SDS011;3908;52.310;7.230;2023-02-15T03:44:57;28.00;;;16.30;;
7729;SDS011;3908;52.310;7.230;2023-02-15T03:47:49;32.57;;;18.03;;
7729;SDS011;3908;52.310;7.230;2023-02-15T03:50:39;32.43;;;17.80;;
7729;SDS011;3908;52.310;7.230;2023-02-15T03:53:44;37.50;;;16.53;;
7729;SDS011;3908;52.310;7.230;2023-02-15T03:56:34;44.73;;;17.47;;
7729;SDS011;3908;52.310;7.230;2023-02-15T03:59:24;43.63;;;17.80;;
7729;SDS011;3908;52.310;7.230;2023-02-15T04:02:29;35.97;;;17.33;;
7729;SDS011;3908;52.310;7.230;2023-02-15T04:05:24;40.33;;;17.43;;
7729;SDS011;3908;52.310;7.230;2023-02-15T04:08:11;32.57;;;17.10;;
7729;SDS011;3908;52.310;7.230;2023-02-15T04:10:59;36.10;;;17.60;;
7729;SDS011;3908;52.310;7.230;2023-02-15T04:13:45;42.50;;;19.60;;
7729;SDS011;3908;52.310;7.230;2023-02-15T04:16:33;39.40;;;19.13;;
7729;SDS011;3908;52.310;7.230;2023-02-15T04:19:19;34.90;;;16.57;;
7729;SDS011;3908;52.310;7.230;2023-02-15T04:22:24;41.20;;;18.63;;
7729;SDS011;3908;52.310;7.230;2023-02-15T04:25:28;41.00;;;18.93;;
7729;SDS011;3908;52.310;7.230;2023-02-15T04:28:15;37.70;;;19.40;;
7729;SDS011;3908;52.310;7.230;2023-02-15T04:31:02;37.13;;;16.53;;
7729;SDS011;3908;52.310;7.230;2023-02-15T04:33:51;34.53;;;16.37;;
7729;SDS011;3908;52.310;7.230;2023-02-15T04:36:39;32.47;;;17.43;;
7729;SDS011;3908;52.310;7.230;2023-02-15T04:39:26;29.93;;;17.87;;
7729;SDS011;3908;52.310;7.230;2023-02-15T04:42:13;37.37;;;17.63;;
7729;SDS011;3908;52.310;7.230;2023-02-15T04:45:01;44.10;;;20.10;;
7729;SDS011;3908;52.310;7.230;2023-02-15T04:47:48;31.00;;;17.57;;
7729;SDS011;3908;52.310;7.230;2023-02-15T04:50:36;41.03;;;20.00;;
7729;SDS011;3908;52.310;7.230;2023-02-15T04:53:23;36.23;;;19.93;;
7729;SDS011;3908;52.310;7.230;2023-02-15T04:56:10;37.50;;;18.90;;
7729;SDS011;3908;52.310;7.230;2023-02-15T04:58:57;39.00;;;19.50;;
7729;SDS011;3908;52.310;7.230;2023-02-15T05:01:44;42.30;;;19.73;;
7729;SDS011;3908;52.310;7.230;2023-02-15T05:04:31;36.77;;;19.33;;
7729;SDS011;3908;52.310;7.230;2023-02-15T05:07:19;39.40;;;18.80;;
7729;SDS011;3908;52.310;7.230;2023-02-15T05:10:07;42.50;;;20.17;;
7729;SDS011;3908;52.310;7.230;2023-02-15T05:12:54;36.70;;;19.47;;
7729;SDS011;3908;52.310;7.230;2023-02-15T05:15:45;45.60;;;21.47;;
7729;SDS011;3908;52.310;7.230;2023-02-15T05:18:33;58.63;;;21.57;;
7729;SDS011;3908;52.310;7.230;2023-02-15T05:21:20;45.63;;;21.00;;
7729;SDS011;3908;52.310;7.230;2023-02-15T05:24:09;49.27;;;20.83;;
7729;SDS011;3908;52.310;7.230;2023-02-15T05:27:10;39.17;;;20.33;;
7729;SDS011;3908;52.310;7.230;2023-02-15T05:30:15;46.23;;;19.60;;
7729;SDS011;3908;52.310;7.230;2023-02-15T05:33:02;104.90;;;22.07;;
7729;SDS011;3908;52.310;7.230;2023-02-15T05:35:49;39.63;;;19.60;;
7729;SDS011;3908;52.310;7.230;2023-02-15T05:38:36;46.27;;;19.87;;
7729;SDS011;3908;52.310;7.230;2023-02-15T05:41:24;61.37;;;20.43;;
7729;SDS011;3908;52.310;7.230;2023-02-15T05:44:11;86.33;;;21.27;;
7729;SDS011;3908;52.310;7.230;2023-02-15T05:46:58;88.87;;;21.40;;
7729;SDS011;3908;52.310;7.230;2023-02-15T05:49:45;55.37;;;19.87;;
7729;SDS011;3908;52.310;7.230;2023-02-15T05:52:32;46.53;;;19.80;;
7729;SDS011;3908;52.310;7.230;2023-02-15T05:55:19;44.03;;;18.70;;
7729;SDS011;3908;52.310;7.230;2023-02-15T05:58:08;31.43;;;16.70;;
7729;SDS011;3908;52.310;7.230;2023-02-15T06:00:55;35.90;;;18.20;;
7729;SDS011;3908;52.310;7.230;2023-02-15T06:03:42;43.37;;;18.10;;
7729;SDS011;3908;52.310;7.230;2023-02-15T06:06:29;42.30;;;17.23;;
7729;SDS011;3908;52.310;7.230;2023-02-15T06:09:16;36.80;;;19.73;;
7729;SDS011;3908;52.310;7.230;2023-02-15T06:12:05;29.77;;;17.23;;
7729;SDS011;3908;52.310;7.230;2023-02-15T06:14:53;42.30;;;19.47;;
7729;SDS011;3908;52.310;7.230;2023-02-15T06:17:40;40.73;;;20.17;;
7729;SDS011;3908;52.310;7.230;2023-02-15T06:20:27;38.10;;;18.50;;
7729;SDS011;3908;52.310;7.230;2023-02-15T06:23:14;39.13;;;18.27;;
7729;SDS011;3908;52.310;7.230;2023-02-15T06:26:02;31.17;;;17.60;;
7729;SDS011;3908;52.310;7.230;2023-02-15T06:28:49;30.77;;;17.57;;
7729;SDS011;3908;52.310;7.230;2023-02-15T06:31:37;34.83;;;18.53;;
7729;SDS011;3908;52.310;7.230;2023-02-15T06:34:24;33.43;;;18.07;;
7729;SDS011;3908;52.310;7.230;2023-02-15T06:37:11;36.17;;;19.47;;
7729;SDS011;3908;52.310;7.230;2023-02-15T06:39:58;45.93;;;21.70;;
7729;SDS011;3908;52.310;7.230;2023-02-15T06:42:45;42.60;;;21.30;;
7729;SDS011;3908;52.310;7.230;2023-02-15T06:45:32;41.00;;;20.13;;
7729;SDS011;3908;52.310;7.230;2023-02-15T06:48:21;33.17;;;18.00;;
7729;SDS011;3908;52.310;7.230;2023-02-15T06:51:08;34.33;;;19.57;;
7729;SDS011;3908;52.310;7.230;2023-02-15T06:53:55;36.03;;;19.13;;
7729;SDS011;3908;52.310;7.230;2023-02-15T06:56:42;32.87;;;18.67;;
7729;SDS011;3908;52.310;7.230;2023-02-15T06:59:29;30.03;;;17.53;;
7729;SDS011;3908;52.310;7.230;2023-02-15T07:02:16;27.37;;;18.00;;
7729;SDS011;3908;52.310;7.230;2023-02-15T07:05:05;31.20;;;17.97;;
7729;SDS011;3908;52.310;7.230;2023-02-15T07:07:52;31.57;;;17.87;;
7729;SDS011;3908;52.310;7.230;2023-02-15T07:10:39;31.03;;;18.37;;
7729;SDS011;3908;52.310;7.230;2023-02-15T07:13:29;30.17;;;17.70;;
7729;SDS011;3908;52.310;7.230;2023-02-15T07:16:15;31.50;;;17.20;;
7729;SDS011;3908;52.310;7.230;2023-02-15T07:19:02;30.87;;;17.47;;
7729;SDS011;3908;52.310;7.230;2023-02-15T07:21:50;28.27;;;17.83;;
7729;SDS011;3908;52.310;7.230;2023-02-15T07:24:37;30.93;;;16.77;;
7729;SDS011;3908;52.310;7.230;2023-02-15T07:27:24;32.03;;;17.80;;
7729;SDS011;3908;52.310;7.230;2023-02-15T07:30:12;31.33;;;18.50;;
7729;SDS011;3908;52.310;7.230;2023-02-15T07:33:01;32.57;;;17.27;;
7729;SDS011;3908;52.310;7.230;2023-02-15T07:36:06;31.57;;;17.77;;
7729;SDS011;3908;52.310;7.230;2023-02-15T07:38:56;27.90;;;17.30;;
7729;SDS011;3908;52.310;7.230;2023-02-15T07:41:43;33.70;;;18.73;;
7729;SDS011;3908;52.310;7.230;2023-02-15T07:44:30;28.03;;;18.17;;
7729;SDS011;3908;52.310;7.230;2023-02-15T07:47:17;34.20;;;18.97;;
7729;SDS011;3908;52.310;7.230;2023-02-15T07:50:04;34.70;;;19.57;;
7729;SDS011;3908;52.310;7.230;2023-02-15T07:52:52;32.93;;;19.13;;
7729;SDS011;3908;52.310;7.230;2023-02-15T07:55:41;36.23;;;19.67;;
7729;SDS011;3908;52.310;7.230;2023-02-15T07:58:28;32.93;;;19.23;;
7729;SDS011;3908;52.310;7.230;2023-02-15T08:01:29;30.63;;;18.93;;
7729;SDS011;3908;52.310;7.230;2023-02-15T08:04:17;31.80;;;19.37;;
7729;SDS011;3908;52.310;7.230;2023-02-15T08:07:04;33.67;;;18.93;;
7729;SDS011;3908;52.310;7.230;2023-02-15T08:09:52;32.17;;;19.47;;
7729;SDS011;3908;52.310;7.230;2023-02-15T08:12:40;36.30;;;21.27;;
7729;SDS011;3908;52.310;7.230;2023-02-15T08:15:27;31.90;;;20.40;;
7729;SDS011;3908;52.310;7.230;2023-02-15T08:18:18;37.13;;;21.10;;
7729;SDS011;3908;52.310;7.230;2023-02-15T08:21:05;37.90;;;20.63;;
7729;SDS011;3908;52.310;7.230;2023-02-15T08:23:52;36.63;;;21.40;;
7729;SDS011;3908;52.310;7.230;2023-02-15T08:26:39;37.77;;;20.90;;
7729;SDS011;3908;52.310;7.230;2023-02-15T08:29:28;40.77;;;21.57;;
7729;SDS011;3908;52.310;7.230;2023-02-15T08:32:16;36.10;;;21.43;;
7729;SDS011;3908;52.310;7.230;2023-02-15T08:35:04;37.70;;;21.73;;
7729;SDS011;3908;52.310;7.230;2023-02-15T08:37:51;36.70;;;21.83;;
7729;SDS011;3908;52.310;7.230;2023-02-15T08:40:38;38.73;;;22.20;;
7729;SDS011;3908;52.310;7.230;2023-02-15T08:43:26;39.37;;;23.87;;
7729;SDS011;3908;52.310;7.230;2023-02-15T08:46:14;43.27;;;23.40;;
7729;SDS011;3908;52.310;7.230;2023-02-15T08:49:02;40.57;;;23.30;;
7729;SDS011;3908;52.310;7.230;2023-02-15T08:51:50;38.80;;;23.13;;
7729;SDS011;3908;52.310;7.230;2023-02-15T08:54:37;38.80;;;22.83;;
7729;SDS011;3908;52.310;7.230;2023-02-15T08:57:24;41.83;;;24.60;;
7729;SDS011;3908;52.310;7.230;2023-02-15T09:00:11;43.50;;;23.67;;
7729;SDS011;3908;52.310;7.230;2023-02-15T09:03:00;41.07;;;23.90;;
7729;SDS011;3908;52.310;7.230;2023-02-15T09:05:47;41.37;;;24.33;;
7729;SDS011;3908;52.310;7.230;2023-02-15T09:08:34;41.77;;;24.20;;
7729;SDS011;3908;52.310;7.230;2023-02-15T09:11:22;44.10;;;23.63;;
7729;SDS011;3908;52.310;7.230;2023-02-15T09:14:11;43.27;;;24.93;;
7729;SDS011;3908;52.310;7.230;2023-02-15T09:16:59;45.87;;;24.23;;
7729;SDS011;3908;52.310;7.230;2023-02-15T09:19:48;43.47;;;25.03;;
7729;SDS011;3908;52.310;7.230;2023-02-15T09:22:35;44.40;;;24.87;;
7729;SDS011;3908;52.310;7.230;2023-02-15T09:25:22;39.60;;;24.83;;
7729;SDS011;3908;52.310;7.230;2023-02-15T09:28:08;44.07;;;25.30;;
7729;SDS011;3908;52.310;7.230;2023-02-15T09:30:55;40.63;;;23.43;;
7729;SDS011;3908;52.310;7.230;2023-02-15T09:33:43;44.17;;;24.83;;
7729;SDS011;3908;52.310;7.230;2023-02-15T09:36:33;41.93;;;25.37;;
7729;SDS011;3908;52.310;7.230;2023-02-15T09:39:22;42.07;;;23.70;;
7729;SDS011;3908;52.310;7.230;2023-02-15T09:45:31;43.13;;;24.80;;
7729;SDS011;3908;52.310;7.230;2023-02-15T09:48:41;46.73;;;24.63;;
7729;SDS011;3908;52.310;7.230;2023-02-15T09:54:48;41.43;;;24.47;;
7729;SDS011;3908;52.310;7.230;2023-02-15T09:57:47;45.47;;;23.93;;
7729;SDS011;3908;52.310;7.230;2023-02-15T10:00:41;42.07;;;24.63;;
7729;SDS011;3908;52.310;7.230;2023-02-15T10:03:42;41.13;;;23.77;;
7729;SDS011;3908;52.310;7.230;2023-02-15T10:06:42;40.50;;;24.10;;
7729;SDS011;3908;52.310;7.230;2023-02-15T10:09:41;37.93;;;23.37;;
7729;SDS011;3908;52.310;7.230;2023-02-15T10:12:42;35.53;;;22.10;;
7729;SDS011;3908;52.310;7.230;2023-02-15T10:15:48;43.33;;;24.20;;
7729;SDS011;3908;52.310;7.230;2023-02-15T10:18:45;46.70;;;23.77;;
7729;SDS011;3908;52.310;7.230;2023-02-15T10:21:44;40.90;;;25.63;;
7729;SDS011;3908;52.310;7.230;2023-02-15T10:24:52;46.00;;;23.60;;
7729;SDS011;3908;52.310;7.230;2023-02-15T10:27:57;39.43;;;22.67;;
7729;SDS011;3908;52.310;7.230;2023-02-15T10:30:52;42.27;;;22.40;;
7729;SDS011;3908;52.310;7.230;2023-02-15T10:33:43;40.80;;;22.77;;
7729;SDS011;3908;52.310;7.230;2023-02-15T10:36:33;42.33;;;21.27;;
7729;SDS011;3908;52.310;7.230;2023-02-15T10:39:30;40.23;;;22.00;;
7729;SDS011;3908;52.310;7.230;2023-02-15T10:42:28;38.13;;;23.07;;
7729;SDS011;3908;52.310;7.230;2023-02-15T10:45:24;43.53;;;22.10;;
7729;SDS011;3908;52.310;7.230;2023-02-15T10:48:21;36.20;;;21.53;;
7729;SDS011;3908;52.310;7.230;2023-02-15T10:51:16;41.10;;;22.77;;
7729;SDS011;3908;52.310;7.230;2023-02-15T10:54:18;36.50;;;21.83;;
7729;SDS011;3908;52.310;7.230;2023-02-15T10:57:13;37.77;;;21.83;;
7729;SDS011;3908;52.310;7.230;2023-02-15T11:00:11;37.90;;;21.70;;
7729;SDS011;3908;52.310;7.230;2023-02-15T11:03:12;38.23;;;21.40;;
7729;SDS011;3908;52.310;7.230;2023-02-15T11:06:12;37.90;;;21.70;;
7729;SDS011;3908;52.310;7.230;2023-02-15T11:09:02;34.67;;;21.30;;
7729;SDS011;3908;52.310;7.230;2023-02-15T11:11:56;35.10;;;21.33;;
7729;SDS011;3908;52.310;7.230;2023-02-15T11:14:46;39.80;;;21.93;;
7729;SDS011;3908;52.310;7.230;2023-02-15T11:17:42;36.03;;;20.90;;
7729;SDS011;3908;52.310;7.230;2023-02-15T11:20:36;34.13;;;20.73;;
7729;SDS011;3908;52.310;7.230;2023-02-15T11:23:28;32.40;;;20.30;;
7729;SDS011;3908;52.310;7.230;2023-02-15T11:26:19;39.80;;;20.93;;
7729;SDS011;3908;52.310;7.230;2023-02-15T11:29:13;38.07;;;20.17;;
7729;SDS011;3908;52.310;7.230;2023-02-15T11:32:12;35.87;;;20.30;;
7729;SDS011;3908;52.310;7.230;2023-02-15T11:35:10;35.53;;;19.87;;
7729;SDS011;3908;52.310;7.230;2023-02-15T11:38:10;35.73;;;19.80;;
7729;SDS011;3908;52.310;7.230;2023-02-15T11:41:02;35.70;;;20.20;;
7729;SDS011;3908;52.310;7.230;2023-02-15T11:43:54;37.03;;;19.77;;
7729;SDS011;3908;52.310;7.230;2023-02-15T11:46:46;35.20;;;20.77;;
7729;SDS011;3908;52.310;7.230;2023-02-15T11:49:33;35.50;;;20.57;;
7729;SDS011;3908;52.310;7.230;2023-02-15T11:52:24;42.10;;;21.20;;
7729;SDS011;3908;52.310;7.230;2023-02-15T11:55:11;35.93;;;19.97;;
7729;SDS011;3908;52.310;7.230;2023-02-15T11:58:01;41.27;;;21.50;;
7729;SDS011;3908;52.310;7.230;2023-02-15T12:00:56;41.97;;;22.63;;
7729;SDS011;3908;52.310;7.230;2023-02-15T12:03:49;39.63;;;20.63;;
7729;SDS011;3908;52.310;7.230;2023-02-15T12:06:40;40.37;;;20.37;;
7729;SDS011;3908;52.310;7.230;2023-02-15T12:09:33;39.40;;;21.07;;
7729;SDS011;3908;52.310;7.230;2023-02-15T12:12:24;41.13;;;20.90;;
7729;SDS011;3908;52.310;7.230;2023-02-15T12:15:13;41.47;;;22.60;;
7729;SDS011;3908;52.310;7.230;2023-02-15T12:18:00;41.30;;;21.57;;
7729;SDS011;3908;52.310;7.230;2023-02-15T12:20:48;37.63;;;20.93;;
7729;SDS011;3908;52.310;7.230;2023-02-15T12:23:39;42.53;;;20.43;;
7729;SDS011;3908;52.310;7.230;2023-02-15T12:26:32;37.17;;;21.17;;
7729;SDS011;3908;52.310;7.230;2023-02-15T12:29:22;39.63;;;21.97;;
7729;SDS011;3908;52.310;7.230;2023-02-15T12:32:16;41.57;;;21.53;;
7729;SDS011;3908;52.310;7.230;2023-02-15T12:35:07;43.07;;;21.40;;
7729;SDS011;3908;52.310;7.230;2023-02-15T12:38:00;39.57;;;21.53;;
7729;SDS011;3908;52.310;7.230;2023-02-15T12:40:56;39.80;;;20.83;;
7729;SDS011;3908;52.310;7.230;2023-02-15T12:43:45;41.47;;;21.43;;
7729;SDS011;3908;52.310;7.230;2023-02-15T12:46:33;39.83;;;20.50;;
7729;SDS011;3908;52.310;7.230;2023-02-15T12:49:20;43.87;;;21.07;;
7729;SDS011;3908;52.310;7.230;2023-02-15T12:52:22;39.07;;;19.93;;
7729;SDS011;3908;52.310;7.230;2023-02-15T12:55:18;36.70;;;19.70;;
7729;SDS011;3908;52.310;7.230;2023-02-15T12:58:08;36.33;;;18.87;;
7729;SDS011;3908;52.310;7.230;2023-02-15T13:01:12;36.83;;;19.27;;
7729;SDS011;3908;52.310;7.230;2023-02-15T13:04:01;38.37;;;20.23;;
7729;SDS011;3908;52.310;7.230;2023-02-15T13:06:51;35.27;;;20.20;;
7729;SDS011;3908;52.310;7.230;2023-02-15T13:09:40;35.87;;;18.07;;
7729;SDS011;3908;52.310;7.230;2023-02-15T13:12:27;39.20;;;18.77;;
7729;SDS011;3908;52.310;7.230;2023-02-15T13:15:23;37.80;;;19.03;;
7729;SDS011;3908;52.310;7.230;2023-02-15T13:18:14;36.20;;;18.87;;
7729;SDS011;3908;52.310;7.230;2023-02-15T13:21:05;32.27;;;18.10;;
7729;SDS011;3908;52.310;7.230;2023-02-15T13:23:57;37.23;;;18.37;;
7729;SDS011;3908;52.310;7.230;2023-02-15T13:26:47;37.27;;;18.73;;
7729;SDS011;3908;52.310;7.230;2023-02-15T13:29:35;40.03;;;18.40;;
7729;SDS011;3908;52.310;7.230;2023-02-15T13:32:26;34.53;;;18.50;;
7729;SDS011;3908;52.310;7.230;2023-02-15T13:35:18;37.07;;;19.77;;
7729;SDS011;3908;52.310;7.230;2023-02-15T13:38:07;41.63;;;18.43;;
7729;SDS011;3908;52.310;7.230;2023-02-15T13:41:04;36.50;;;18.53;;
7729;SDS011;3908;52.310;7.230;2023-02-15T13:43:58;36.97;;;18.30;;
7729;SDS011;3908;52.310;7.230;2023-02-15T13:46:58;35.73;;;17.03;;
7729;SDS011;3908;52.310;7.230;2023-02-15T13:50:04;39.07;;;18.07;;
7729;SDS011;3908;52.310;7.230;2023-02-15T13:53:13;33.37;;;16.97;;
7729;SDS011;3908;52.310;7.230;2023-02-15T13:56:13;35.17;;;17.00;;
7729;SDS011;3908;52.310;7.230;2023-02-15T13:59:13;35.73;;;17.03;;
7729;SDS011;3908;52.310;7.230;2023-02-15T14:02:25;38.70;;;17.80;;
7729;SDS011;3908;52.310;7.230;2023-02-15T14:05:28;34.70;;;17.50;;
7729;SDS011;3908;52.310;7.230;2023-02-15T14:08:25;33.00;;;17.80;;
7729;SDS011;3908;52.310;7.230;2023-02-15T14:11:27;36.97;;;18.63;;
7729;SDS011;3908;52.310;7.230;2023-02-15T14:14:29;31.40;;;17.83;;
7729;SDS011;3908;52.310;7.230;2023-02-15T14:17:28;33.13;;;16.53;;
7729;SDS011;3908;52.310;7.230;2023-02-15T14:20:24;33.57;;;18.57;;
7729;SDS011;3908;52.310;7.230;2023-02-15T14:23:22;35.90;;;18.00;;
7729;SDS011;3908;52.310;7.230;2023-02-15T14:26:23;34.20;;;16.77;;
7729;SDS011;3908;52.310;7.230;2023-02-15T14:29:22;36.17;;;16.27;;
7729;SDS011;3908;52.310;7.230;2023-02-15T14:32:24;33.73;;;17.13;;
7729;SDS011;3908;52.310;7.230;2023-02-15T14:35:18;34.47;;;18.30;;
7729;SDS011;3908;52.310;7.230;2023-02-15T14:38:11;27.67;;;16.07;;
7729;SDS011;3908;52.310;7.230;2023-02-15T14:41:07;35.87;;;18.40;;
7729;SDS011;3908;52.310;7.230;2023-02-15T14:44:00;34.60;;;19.00;;
7729;SDS011;3908;52.310;7.230;2023-02-15T14:46:56;35.63;;;18.63;;
7729;SDS011;3908;52.310;7.230;2023-02-15T14:49:49;32.60;;;17.57;;
7729;SDS011;3908;52.310;7.230;2023-02-15T14:52:38;34.67;;;17.47;;
7729;SDS011;3908;52.310;7.230;2023-02-15T14:59:14;34.23;;;17.23;;
7729;SDS011;3908;52.310;7.230;2023-02-15T15:02:15;34.80;;;17.67;;
7729;SDS011;3908;52.310;7.230;2023-02-15T15:05:06;33.33;;;17.23;;
7729;SDS011;3908;52.310;7.230;2023-02-15T15:07:56;33.30;;;16.50;;
7729;SDS011;3908;52.310;7.230;2023-02-15T15:10:45;30.70;;;17.13;;
7729;SDS011;3908;52.310;7.230;2023-02-15T15:13:53;33.07;;;17.87;;
7729;SDS011;3908;52.310;7.230;2023-02-15T15:16:49;30.90;;;16.80;;
7729;SDS011;3908;52.310;7.230;2023-02-15T15:26:29;32.03;;;16.47;;
7729;SDS011;3908;52.310;7.230;2023-02-15T15:29:29;30.97;;;16.87;;
7729;SDS011;3908;52.310;7.230;2023-02-15T15:32:26;34.03;;;16.97;;
7729;SDS011;3908;52.310;7.230;2023-02-15T15:35:19;33.53;;;16.90;;
7729;SDS011;3908;52.310;7.230;2023-02-15T15:38:19;34.67;;;17.03;;
7729;SDS011;3908;52.310;7.230;2023-02-15T15:41:23;33.00;;;16.97;;
7729;SDS011;3908;52.310;7.230;2023-02-15T15:47:52;28.07;;;14.87;;
7729;SDS011;3908;52.310;7.230;2023-02-15T15:50:50;32.53;;;17.03;;
7729;SDS011;3908;52.310;7.230;2023-02-15T15:53:40;32.20;;;16.60;;
7729;SDS011;3908;52.310;7.230;2023-02-15T15:56:32;32.07;;;16.33;;
7729;SDS011;3908;52.310;7.230;2023-02-15T15:59:22;34.47;;;17.17;;
7729;SDS011;3908;52.310;7.230;2023-02-15T16:02:13;29.43;;;16.63;;
7729;SDS011;3908;52.310;7.230;2023-02-15T16:05:06;35.07;;;16.53;;
7729;SDS011;3908;52.310;7.230;2023-02-15T16:07:54;32.43;;;16.97;;
7729;SDS011;3908;52.310;7.230;2023-02-15T16:10:41;30.63;;;17.37;;
7729;SDS011;3908;52.310;7.230;2023-02-15T16:13:28;33.50;;;17.20;;
7729;SDS011;3908;52.310;7.230;2023-02-15T16:16:20;32.37;;;15.97;;
7729;SDS011;3908;52.310;7.230;2023-02-15T16:19:16;33.53;;;16.70;;
7729;SDS011;3908;52.310;7.230;2023-02-15T16:22:09;30.73;;;15.43;;
7729;SDS011;3908;52.310;7.230;2023-02-15T16:25:13;31.43;;;15.97;;
7729;SDS011;3908;52.310;7.230;2023-02-15T16:28:11;33.27;;;17.10;;
7729;SDS011;3908;52.310;7.230;2023-02-15T16:31:04;34.07;;;17.80;;
7729;SDS011;3908;52.310;7.230;2023-02-15T16:33:53;29.00;;;17.50;;
7729;SDS011;3908;52.310;7.230;2023-02-15T16:36:43;35.03;;;17.77;;
7729;SDS011;3908;52.310;7.230;2023-02-15T16:39:29;34.70;;;17.50;;
7729;SDS011;3908;52.310;7.230;2023-02-15T16:42:26;36.43;;;16.83;;
7729;SDS011;3908;52.310;7.230;2023-02-15T16:45:15;32.00;;;17.17;;
7729;SDS011;3908;52.310;7.230;2023-02-15T16:48:05;31.93;;;16.33;;
7729;SDS011;3908;52.310;7.230;2023-02-15T16:50:58;27.10;;;15.47;;
7729;SDS011;3908;52.310;7.230;2023-02-15T16:53:47;31.63;;;16.30;;
7729;SDS011;3908;52.310;7.230;2023-02-15T16:56:36;28.83;;;16.03;;
7729;SDS011;3908;52.310;7.230;2023-02-15T16:59:29;34.10;;;16.50;;
7729;SDS011;3908;52.310;7.230;2023-02-15T17:02:21;28.47;;;15.70;;
7729;SDS011;3908;52.310;7.230;2023-02-15T17:05:15;40.40;;;19.90;;
7729;SDS011;3908;52.310;7.230;2023-02-15T17:08:06;48.17;;;23.53;;
7729;SDS011;3908;52.310;7.230;2023-02-15T17:11:10;39.93;;;20.73;;
7729;SDS011;3908;52.310;7.230;2023-02-15T17:14:19;37.97;;;20.77;;
7729;SDS011;3908;52.310;7.230;2023-02-15T17:17:08;39.27;;;20.50;;
7729;SDS011;3908;52.310;7.230;2023-02-15T17:20:00;48.17;;;21.97;;
7729;SDS011;3908;52.310;7.230;2023-02-15T17:22:47;34.77;;;20.33;;
7729;SDS011;3908;52.310;7.230;2023-02-15T17:25:35;38.80;;;18.93;;
7729;SDS011;3908;52.310;7.230;2023-02-15T17:28:29;36.57;;;17.90;;
7729;SDS011;3908;52.310;7.230;2023-02-15T17:31:18;33.13;;;17.50;;
7729;SDS011;3908;52.310;7.230;2023-02-15T17:34:09;43.07;;;21.63;;
7729;SDS011;3908;52.310;7.230;2023-02-15T17:37:29;43.30;;;19.03;;